Gravel Ridge, Arkansas
Current Conditions -  °F | °C
As of 2:58 AM on Wednesday 22 Oct 2014 (Local Time) from KLRF Reporting Station
Clear Clear  
Wind Chill:   Ceiling: Unl
Heat Index:   Visibility: 7mi
Dew Point:   Wind: 5mph
Humidity: 92%   Direction: 260°W
Pressure: 30.14"   Gusts: NA
Location:  34.9092°N, 92.1561°W
Report Text: KLRF 220758Z AUTO 26004KT 7SM CLR 09/08 A3014 RMK AO2 SLP208 T00890076
Loading
Personal Weather Stations






























Interactive Weather Map
Tropical Storm Tracking
New forecast layout! Learn more

10-Day Weather Forecast

Advertisements
Track Severe Weather on mobile